Flight Track Log - Related Links

Times and Time Zones

All times are in EDT time to prevent confusion due to time zone crossing. See the LYM1725 flight status page for this flight to view local times or setup timezone preferences in your user account.

Time Position Orientation Groundspeed Altitude Reporting Facility
EDT Latitude Longitude Course Direction KTS MPH feet Rate Location/Type
Thu 09:11:46 PM 43.0225 -108.3817 116° Southeast 190 219 9,200  Level Denver Center
Thu 09:12:51 PM 42.9933 -108.2994 116° Southeast 217 250 10,900 1,370 Climbing Salt Lake Center
Thu 09:13:53 PM 42.9625 -108.2328 122° Southeast 218 251 12,100 1,366 Climbing Salt Lake Center
Thu 09:14:54 PM 42.9244 -108.1542 123° Southeast 219 252 13,700 1,561 Climbing Salt Lake Center
Thu 09:15:56 PM 42.8906 -108.0883 125° Southeast 220 253 15,300 1,366 Climbing Salt Lake Center
Thu 09:16:57 PM 42.8586 -108.0211 123° Southeast 221 254 16,500 1,171 Climbing Salt Lake Center
Thu 09:17:59 PM 42.8164 -107.9425 126° Southeast 228 262 17,700 1,122 Climbing Salt Lake Center
Thu 09:19:00 PM 42.7786 -107.8831 131° Southeast 223 257 18,800 1,171 Climbing Salt Lake Center
Thu 09:20:02 PM 42.7417 -107.8150 126° Southeast 227 261 20,100 1,065 Climbing Salt Lake Center
Thu 09:21:04 PM 42.7050 -107.7325 121° Southeast 227 261 21,000 439 Climbing Salt Lake Center
Thu 09:22:05 PM 42.6653 -107.6653 129° Southeast 239 275 21,000  Level Salt Lake Center
Thu 09:23:06 PM 42.6086 -107.5767 131° Southeast 271 312 21,000  Level Salt Lake Center
Thu 09:24:08 PM 42.5564 -107.5047 135° Southeast 278 320 21,000  Level Salt Lake Center
Thu 09:25:09 PM 42.4956 -107.4192 134° Southeast 281 323 21,000  Level Salt Lake Center
Thu 09:26:11 PM 42.4372 -107.3525 140° Southeast 286 329 21,000  Level Salt Lake Center
Thu 09:27:13 PM 42.3858 -107.3042 145° Southeast 282 325 21,000  Level Denver Center
Thu 09:28:15 PM 42.2986 -107.2311 148° Southeast 289 333 21,000  Level Denver Center
Thu 09:29:17 PM 42.2317 -107.1794 150° Southeast 290 334 21,000  Level Denver Center
Thu 09:30:19 PM 42.1581 -107.1108 145° Southeast 288 331 21,000  Level Denver Center
Thu 09:31:21 PM 42.0989 -107.0411 139° Southeast 295 339 21,000  Level Denver Center
Thu 09:32:23 PM 42.0478 -106.9397 124° Southeast 292 336 21,000  Level Denver Center
Thu 09:33:25 PM 42.0044 -106.8558 125° Southeast 288 331 21,000  Level Denver Center
Thu 09:34:27 PM 41.9483 -106.7592 128° Southeast 291 335 21,000  Level Denver Center
Thu 09:35:29 PM 41.9078 -106.6717 122° Southeast 290 334 21,000  Level Denver Center
Thu 09:36:31 PM 41.8594 -106.5719 123° Southeast 286 329 21,000  Level Denver Center
Thu 09:37:33 PM 41.8181 -106.4869 123° Southeast 284 327 21,000 49 Level Denver Center
Thu 09:38:34 PM 41.7714 -106.4047 127° Southeast 288 331 21,100 -49 Climbing Denver Center
Thu 09:39:36 PM 41.7119 -106.3125 131° Southeast 292 336 20,900 -48 Descending Denver Center
Thu 09:40:38 PM 41.6589 -106.2353 133° Southeast 295 339 21,000 48 Climbing Denver Center
Thu 09:41:40 PM 41.5986 -106.1450 132° Southeast 292 336 21,000  Level Denver Center
Thu 09:42:42 PM 41.5506 -106.0672 130° Southeast 289 333 21,000 48 Level Denver Center
Thu 09:43:44 PM 41.4939 -105.9736 129° Southeast 291 335 21,100  Climbing Denver Center
Thu 09:44:46 PM 41.4403 -105.8978 133° Southeast 291 335 21,000 -48 Descending Denver Center
Thu 09:45:49 PM 41.3814 -105.8081 131° Southeast 289 333 21,000  Level Denver Center
Thu 09:46:50 PM 41.3411 -105.7433 130° Southeast 287 330 21,000  Level Denver Center
Thu 09:47:53 PM 41.2781 -105.6389 129° Southeast 284 327 21,000  Level Denver Center
Thu 09:48:55 PM 41.2322 -105.5578 127° Southeast 288 331 21,000 -145 Level Denver Center
Thu 09:49:57 PM 41.1739 -105.4689 131° Southeast 286 329 20,700 -629 Descending Denver Center
Thu 09:50:59 PM 41.1189 -105.3903 133° Southeast 298 343 19,700 -1,258 Descending Denver Center
Thu 09:52:01 PM 41.0528 -105.2958 133° Southeast 307 353 18,100 -1,597 Descending Denver Center
Thu 09:53:03 PM 40.9939 -105.2178 135° Southeast 312 359 16,400 -2,032 Descending Denver Center
Thu 09:54:05 PM 40.9269 -105.1322 136° Southeast 309 356 13,900 -1,645 Descending Denver Center
Thu 09:55:07 PM 40.8761 -105.0631 134° Southeast 295 339 13,000 -435 Descending Denver Center
Thu 09:56:09 PM 40.8161 -104.9869 136° Southeast 281 323 13,000  Level Denver Center
Thu 09:57:10 PM 40.7722 -104.9344 138° Southeast 275 316 13,000 -290 Level Denver Center
Thu 09:58:13 PM 40.7058 -104.8461 135° Southeast 273 314 12,400 -1,296 Descending Denver Center
Thu 09:59:15 PM 40.6614 -104.7717 128° Southeast 260 299 10,300 -1,645 Descending Denver Center
Thu 10:00:17 PM 40.6111 -104.6953 131° Southeast 259 298 9,000 -629 Descending Denver Center
Thu 10:01:19 PM 40.5650 -104.6325 134° Southeast 244 281 9,000  Level Denver Center
Thu 10:02:21 PM 40.5067 -104.6128 166° South 230 265 9,000  Level Denver Center
Thu 10:03:23 PM 40.4456 -104.6294 192° South 226 260 9,000  Level Denver Center
Thu 10:04:25 PM 40.3822 -104.6492 193° South 233 268 9,000 -48 Level Denver Center
Thu 10:05:27 PM 40.3122 -104.6594 186° South 234 269 8,900 -44 Descending Denver Center
Thu 10:06:41 PM 40.2456 -104.6558 178° South 240 276 8,900 -662 Level Denver Center
Thu 10:07:43 PM 40.1628 -104.6578 181° South 242 278 7,400 -968 Descending Denver Center
Thu 10:08:45 PM 40.0931 -104.6578 180° South 234 269 6,900 -221 Descending Denver Center
Thu 10:09:59 PM 40.0325 -104.6589 181° South 222 255 6,900 -44 Level Denver Center
Thu 10:11:02 PM 39.9653 -104.6594 180° South 196 226 6,800 -144 Descending Denver Center
Thu 10:12:04 PM 39.9122 -104.6608 181° South 177 204 6,600 -484 Descending Denver Center
Thu 10:13:06 PM 39.8756 -104.6608 180° South 137 158 5,800 -585 Descending Denver Center
Thu 10:14:07 PM 39.8378 -104.6608 180° South 131 151 5,400 -393 Descending Denver Center
Thu 10:16:00 PM 39.8500 -104.6667 187° South  Level FlightAware Approximate
Thu 10:23:00 PM 39.8617 -104.6732 187° South  Level Estimated

Login

Don't have an account? Register now (free) for customized features, flight alerts, and more!